sensor_id;sensor_type;location;lat;lon;timestamp;pressure;altitude;pressure_sealevel;temperature;humidity
5522;BME280;2783;48.730;8.006;2022-07-10T00:00:11;100741.94;;;20.25;91.57
5522;BME280;2783;48.730;8.006;2022-07-10T00:02:38;100749.19;;;20.24;91.07
5522;BME280;2783;48.730;8.006;2022-07-10T00:05:05;100739.63;;;20.19;90.68
5522;BME280;2783;48.730;8.006;2022-07-10T00:07:30;100753.44;;;20.28;90.57
5522;BME280;2783;48.730;8.006;2022-07-10T00:09:56;100753.25;;;20.31;90.67
5522;BME280;2783;48.730;8.006;2022-07-10T00:12:21;100747.78;;;20.33;90.67
5522;BME280;2783;48.730;8.006;2022-07-10T00:14:47;100751.13;;;20.36;91.01
5522;BME280;2783;48.730;8.006;2022-07-10T00:17:12;100751.13;;;20.36;91.22
5522;BME280;2783;48.730;8.006;2022-07-10T00:19:38;100745.56;;;20.39;91.15
5522;BME280;2783;48.730;8.006;2022-07-10T00:22:04;100735.50;;;20.41;91.49
5522;BME280;2783;48.730;8.006;2022-07-10T00:24:29;100744.97;;;20.48;91.36
5522;BME280;2783;48.730;8.006;2022-07-10T00:26:55;100749.41;;;20.49;90.36
5522;BME280;2783;48.730;8.006;2022-07-10T00:29:20;100750.00;;;20.54;90.86
5522;BME280;2783;48.730;8.006;2022-07-10T00:31:46;100739.69;;;20.61;90.68
5522;BME280;2783;48.730;8.006;2022-07-10T00:34:11;100740.34;;;20.64;90.24
5522;BME280;2783;48.730;8.006;2022-07-10T00:36:38;100729.34;;;20.67;90.12
5522;BME280;2783;48.730;8.006;2022-07-10T00:39:04;100721.63;;;20.61;89.79
5522;BME280;2783;48.730;8.006;2022-07-10T00:41:29;100726.94;;;20.63;90.40
5522;BME280;2783;48.730;8.006;2022-07-10T00:43:59;100723.16;;;20.51;90.69
5522;BME280;2783;48.730;8.006;2022-07-10T00:46:26;100723.16;;;20.51;90.60
5522;BME280;2783;48.730;8.006;2022-07-10T00:48:52;100729.06;;;20.44;91.06
5522;BME280;2783;48.730;8.006;2022-07-10T00:51:22;100725.97;;;20.36;91.07
5522;BME280;2783;48.730;8.006;2022-07-10T00:53:49;100717.53;;;20.26;91.33
5522;BME280;2783;48.730;8.006;2022-07-10T00:56:19;100727.19;;;20.16;92.06
5522;BME280;2783;48.730;8.006;2022-07-10T00:58:46;100726.47;;;20.13;92.78
5522;BME280;2783;48.730;8.006;2022-07-10T01:01:13;100729.41;;;20.08;92.54
5522;BME280;2783;48.730;8.006;2022-07-10T01:03:39;100727.19;;;20.01;93.46
5522;BME280;2783;48.730;8.006;2022-07-10T01:06:05;100731.91;;;19.97;93.44
5522;BME280;2783;48.730;8.006;2022-07-10T01:08:30;100727.66;;;19.93;93.92
5522;BME280;2783;48.730;8.006;2022-07-10T01:10:57;100733.22;;;19.90;94.58
5522;BME280;2783;48.730;8.006;2022-07-10T01:13:22;100726.88;;;19.91;94.54
5522;BME280;2783;48.730;8.006;2022-07-10T01:15:48;100735.47;;;19.98;94.51
5522;BME280;2783;48.730;8.006;2022-07-10T01:18:14;100741.75;;;19.98;94.55
5522;BME280;2783;48.730;8.006;2022-07-10T01:20:39;100738.88;;;20.01;94.05
5522;BME280;2783;48.730;8.006;2022-07-10T01:23:05;100733.28;;;20.04;94.35
5522;BME280;2783;48.730;8.006;2022-07-10T01:25:30;100732.06;;;20.10;93.77
5522;BME280;2783;48.730;8.006;2022-07-10T01:27:56;100732.66;;;20.15;93.65
5522;BME280;2783;48.730;8.006;2022-07-10T01:30:21;100734.31;;;20.17;94.03
5522;BME280;2783;48.730;8.006;2022-07-10T01:32:47;100732.31;;;20.21;93.50
5522;BME280;2783;48.730;8.006;2022-07-10T01:35:13;100737.41;;;20.25;93.01
5522;BME280;2783;48.730;8.006;2022-07-10T01:37:39;100740.72;;;20.30;92.92
5522;BME280;2783;48.730;8.006;2022-07-10T01:40:06;100733.56;;;20.29;93.00
5522;BME280;2783;48.730;8.006;2022-07-10T01:42:32;100745.91;;;20.33;92.76
5522;BME280;2783;48.730;8.006;2022-07-10T01:44:57;100744.88;;;20.36;92.73
5522;BME280;2783;48.730;8.006;2022-07-10T01:47:23;100746.69;;;20.35;90.17
5522;BME280;2783;48.730;8.006;2022-07-10T01:49:50;100741.19;;;20.37;89.69
5522;BME280;2783;48.730;8.006;2022-07-10T01:52:16;100752.88;;;20.37;88.26
5522;BME280;2783;48.730;8.006;2022-07-10T01:54:41;100753.75;;;20.38;88.08
5522;BME280;2783;48.730;8.006;2022-07-10T01:57:07;100750.19;;;20.37;84.81
5522;BME280;2783;48.730;8.006;2022-07-10T01:59:32;100750.19;;;20.37;83.75
5522;BME280;2783;48.730;8.006;2022-07-10T02:01:58;100750.00;;;20.40;83.89
5522;BME280;2783;48.730;8.006;2022-07-10T02:04:23;100750.97;;;20.39;83.36
5522;BME280;2783;48.730;8.006;2022-07-10T02:07:13;100757.31;;;20.38;81.23
5522;BME280;2783;48.730;8.006;2022-07-10T02:09:40;100764.47;;;20.39;79.50
5522;BME280;2783;48.730;8.006;2022-07-10T02:12:10;100748.53;;;20.35;79.30
5522;BME280;2783;48.730;8.006;2022-07-10T02:14:36;100759.25;;;20.36;77.93
5522;BME280;2783;48.730;8.006;2022-07-10T02:17:03;100769.00;;;20.39;77.70
5522;BME280;2783;48.730;8.006;2022-07-10T02:19:28;100764.38;;;20.41;77.67
5522;BME280;2783;48.730;8.006;2022-07-10T02:21:54;100765.06;;;20.44;77.93
5522;BME280;2783;48.730;8.006;2022-07-10T02:24:19;100768.72;;;20.43;76.10
5522;BME280;2783;48.730;8.006;2022-07-10T02:26:44;100770.63;;;20.41;75.52
5522;BME280;2783;48.730;8.006;2022-07-10T02:29:10;100769.09;;;20.37;75.87
5522;BME280;2783;48.730;8.006;2022-07-10T02:31:36;100762.72;;;20.24;75.33
5522;BME280;2783;48.730;8.006;2022-07-10T02:34:06;100771.94;;;20.20;74.86
5522;BME280;2783;48.730;8.006;2022-07-10T02:36:32;100778.50;;;20.16;75.86
5522;BME280;2783;48.730;8.006;2022-07-10T02:38:58;100773.69;;;20.06;75.12
5522;BME280;2783;48.730;8.006;2022-07-10T02:41:23;100780.94;;;20.05;75.62
5522;BME280;2783;48.730;8.006;2022-07-10T02:43:49;100785.53;;;20.03;75.43
5522;BME280;2783;48.730;8.006;2022-07-10T02:46:14;100783.72;;;20.04;75.76
5522;BME280;2783;48.730;8.006;2022-07-10T02:48:40;100778.78;;;19.96;76.41
5522;BME280;2783;48.730;8.006;2022-07-10T02:51:05;100769.09;;;19.92;75.73
5522;BME280;2783;48.730;8.006;2022-07-10T02:53:31;100767.56;;;19.88;76.09
5522;BME280;2783;48.730;8.006;2022-07-10T02:55:56;100771.84;;;19.77;75.89
5522;BME280;2783;48.730;8.006;2022-07-10T02:58:22;100772.47;;;19.66;75.88
5522;BME280;2783;48.730;8.006;2022-07-10T03:00:47;100770.53;;;19.52;76.59
5522;BME280;2783;48.730;8.006;2022-07-10T03:03:13;100763.84;;;19.44;76.72
5522;BME280;2783;48.730;8.006;2022-07-10T03:05:39;100775.44;;;19.46;77.74
5522;BME280;2783;48.730;8.006;2022-07-10T03:08:04;100770.66;;;19.35;76.42
5522;BME280;2783;48.730;8.006;2022-07-10T03:10:29;100773.59;;;19.31;76.82
5522;BME280;2783;48.730;8.006;2022-07-10T03:12:55;100775.81;;;19.23;77.25
5522;BME280;2783;48.730;8.006;2022-07-10T03:15:20;100772.78;;;19.13;77.75
5522;BME280;2783;48.730;8.006;2022-07-10T03:17:46;100772.06;;;19.10;78.09
5522;BME280;2783;48.730;8.006;2022-07-10T03:20:11;100781.13;;;19.09;78.29
5522;BME280;2783;48.730;8.006;2022-07-10T03:22:37;100780.34;;;19.07;78.18
5522;BME280;2783;48.730;8.006;2022-07-10T03:25:04;100782.50;;;19.00;79.53
5522;BME280;2783;48.730;8.006;2022-07-10T03:27:30;100787.25;;;18.95;79.09
5522;BME280;2783;48.730;8.006;2022-07-10T03:29:55;100783.88;;;18.92;79.20
5522;BME280;2783;48.730;8.006;2022-07-10T03:32:20;100790.41;;;18.88;79.06
5522;BME280;2783;48.730;8.006;2022-07-10T03:34:46;100796.53;;;18.90;79.44
5522;BME280;2783;48.730;8.006;2022-07-10T03:37:11;100796.09;;;18.82;79.32
5522;BME280;2783;48.730;8.006;2022-07-10T03:39:37;100796.25;;;18.79;79.87
5522;BME280;2783;48.730;8.006;2022-07-10T03:42:02;100797.16;;;18.79;79.66
5522;BME280;2783;48.730;8.006;2022-07-10T03:44:28;100789.28;;;18.75;79.58
5522;BME280;2783;48.730;8.006;2022-07-10T03:46:53;100802.00;;;18.73;80.51
5522;BME280;2783;48.730;8.006;2022-07-10T03:49:19;100798.84;;;18.65;80.29
5522;BME280;2783;48.730;8.006;2022-07-10T03:51:44;100789.97;;;18.63;80.40
5522;BME280;2783;48.730;8.006;2022-07-10T03:54:10;100793.84;;;18.57;80.87
5522;BME280;2783;48.730;8.006;2022-07-10T03:56:35;100789.59;;;18.53;81.05
5522;BME280;2783;48.730;8.006;2022-07-10T03:59:19;100785.22;;;18.51;81.18
5522;BME280;2783;48.730;8.006;2022-07-10T04:01:44;100785.22;;;18.51;81.16
5522;BME280;2783;48.730;8.006;2022-07-10T04:04:10;100790.06;;;18.44;81.00
5522;BME280;2783;48.730;8.006;2022-07-10T04:06:35;100795.19;;;18.49;81.30
5522;BME280;2783;48.730;8.006;2022-07-10T04:09:04;100799.94;;;18.44;81.37
5522;BME280;2783;48.730;8.006;2022-07-10T04:11:29;100794.56;;;18.44;81.01
5522;BME280;2783;48.730;8.006;2022-07-10T04:13:55;100797.41;;;18.41;80.99
5522;BME280;2783;48.730;8.006;2022-07-10T04:16:21;100790.44;;;18.36;81.63
5522;BME280;2783;48.730;8.006;2022-07-10T04:18:46;100798.38;;;18.40;81.39
5522;BME280;2783;48.730;8.006;2022-07-10T04:21:12;100793.88;;;18.40;81.41
5522;BME280;2783;48.730;8.006;2022-07-10T04:23:37;100802.63;;;18.44;82.61
5522;BME280;2783;48.730;8.006;2022-07-10T04:26:03;100804.56;;;18.42;81.96
5522;BME280;2783;48.730;8.006;2022-07-10T04:28:28;100804.75;;;18.37;81.53
5522;BME280;2783;48.730;8.006;2022-07-10T04:30:54;100807.09;;;18.45;81.93
5522;BME280;2783;48.730;8.006;2022-07-10T04:33:19;100790.94;;;18.45;81.11
5522;BME280;2783;48.730;8.006;2022-07-10T04:35:44;100794.56;;;18.61;80.47
5522;BME280;2783;48.730;8.006;2022-07-10T04:38:10;100803.19;;;18.67;80.39
5522;BME280;2783;48.730;8.006;2022-07-10T04:40:35;100802.47;;;18.64;79.52
5522;BME280;2783;48.730;8.006;2022-07-10T04:43:01;100803.34;;;18.64;79.46
5522;BME280;2783;48.730;8.006;2022-07-10T04:45:26;100797.25;;;18.61;79.35
5522;BME280;2783;48.730;8.006;2022-07-10T04:47:51;100800.91;;;18.60;79.39
5522;BME280;2783;48.730;8.006;2022-07-10T04:50:17;100807.22;;;18.59;79.37
5522;BME280;2783;48.730;8.006;2022-07-10T04:52:42;100800.19;;;18.56;79.15
5522;BME280;2783;48.730;8.006;2022-07-10T04:55:08;100801.63;;;18.63;79.13
5522;BME280;2783;48.730;8.006;2022-07-10T04:57:34;100809.28;;;18.71;80.01
5522;BME280;2783;48.730;8.006;2022-07-10T04:59:59;100804.78;;;18.71;79.90
5522;BME280;2783;48.730;8.006;2022-07-10T05:02:25;100802.00;;;18.73;78.98
5522;BME280;2783;48.730;8.006;2022-07-10T05:04:50;100804.34;;;18.79;78.60
5522;BME280;2783;48.730;8.006;2022-07-10T05:07:15;100801.31;;;18.85;78.06
5522;BME280;2783;48.730;8.006;2022-07-10T05:09:41;100809.88;;;18.93;77.72
5522;BME280;2783;48.730;8.006;2022-07-10T05:12:07;100816.34;;;19.06;76.52
5522;BME280;2783;48.730;8.006;2022-07-10T05:14:32;100812.19;;;19.16;75.69
5522;BME280;2783;48.730;8.006;2022-07-10T05:16:58;100817.16;;;19.23;75.52
5522;BME280;2783;48.730;8.006;2022-07-10T05:19:23;100825.16;;;19.25;75.16
5522;BME280;2783;48.730;8.006;2022-07-10T05:21:49;100820.25;;;19.33;74.50
5522;BME280;2783;48.730;8.006;2022-07-10T05:24:17;100830.94;;;19.34;73.30
5522;BME280;2783;48.730;8.006;2022-07-10T05:26:43;100830.94;;;19.34;73.21
5522;BME280;2783;48.730;8.006;2022-07-10T05:29:08;100822.69;;;19.37;73.01
5522;BME280;2783;48.730;8.006;2022-07-10T05:31:33;100826.13;;;19.24;72.49
5522;BME280;2783;48.730;8.006;2022-07-10T05:33:59;100827.88;;;19.25;73.51
5522;BME280;2783;48.730;8.006;2022-07-10T05:36:25;100826.69;;;19.30;73.52
5522;BME280;2783;48.730;8.006;2022-07-10T05:38:50;100832.63;;;19.37;73.63
5522;BME280;2783;48.730;8.006;2022-07-10T05:41:15;100834.72;;;19.32;73.28
5522;BME280;2783;48.730;8.006;2022-07-10T05:43:41;100821.84;;;19.20;72.85
5522;BME280;2783;48.730;8.006;2022-07-10T05:46:06;100828.53;;;19.13;73.43
5522;BME280;2783;48.730;8.006;2022-07-10T05:48:32;100832.28;;;19.26;73.33
5522;BME280;2783;48.730;8.006;2022-07-10T05:50:57;100825.81;;;19.30;72.24
5522;BME280;2783;48.730;8.006;2022-07-10T05:53:23;100833.34;;;19.40;72.46
5522;BME280;2783;48.730;8.006;2022-07-10T05:55:48;100826.53;;;19.49;71.81
5522;BME280;2783;48.730;8.006;2022-07-10T05:58:15;100832.53;;;19.54;71.24
5522;BME280;2783;48.730;8.006;2022-07-10T06:00:40;100838.81;;;19.70;71.87
5522;BME280;2783;48.730;8.006;2022-07-10T06:03:09;100840.81;;;19.82;71.11
5522;BME280;2783;48.730;8.006;2022-07-10T06:05:34;100837.22;;;19.97;69.98
5522;BME280;2783;48.730;8.006;2022-07-10T06:08:00;100838.53;;;19.90;69.71
5522;BME280;2783;48.730;8.006;2022-07-10T06:10:25;100847.41;;;19.92;69.84
5522;BME280;2783;48.730;8.006;2022-07-10T06:12:51;100851.25;;;20.04;70.42
5522;BME280;2783;48.730;8.006;2022-07-10T06:15:16;100845.16;;;20.00;68.57
5522;BME280;2783;48.730;8.006;2022-07-10T06:17:42;100847.94;;;20.14;70.42
5522;BME280;2783;48.730;8.006;2022-07-10T06:20:07;100859.41;;;20.33;69.23
5522;BME280;2783;48.730;8.006;2022-07-10T06:22:33;100862.72;;;20.38;68.11
5522;BME280;2783;48.730;8.006;2022-07-10T06:25:03;100873.81;;;20.34;66.81
5522;BME280;2783;48.730;8.006;2022-07-10T06:27:30;100864.81;;;20.33;67.95
5522;BME280;2783;48.730;8.006;2022-07-10T06:29:56;100870.22;;;20.33;67.43
5522;BME280;2783;48.730;8.006;2022-07-10T06:32:23;100869.41;;;20.47;67.32
5522;BME280;2783;48.730;8.006;2022-07-10T06:34:50;100872.63;;;20.53;66.28
5522;BME280;2783;48.730;8.006;2022-07-10T06:37:15;100868.22;;;20.66;66.18
5522;BME280;2783;48.730;8.006;2022-07-10T06:39:41;100871.81;;;20.81;65.26
5522;BME280;2783;48.730;8.006;2022-07-10T06:42:06;100867.06;;;21.14;64.94
5522;BME280;2783;48.730;8.006;2022-07-10T06:44:32;100874.50;;;21.39;61.91
5522;BME280;2783;48.730;8.006;2022-07-10T06:46:59;100876.25;;;21.68;62.21
5522;BME280;2783;48.730;8.006;2022-07-10T06:49:43;100877.22;;;21.81;61.67
5522;BME280;2783;48.730;8.006;2022-07-10T06:52:11;100888.22;;;21.78;63.17
5522;BME280;2783;48.730;8.006;2022-07-10T06:54:36;100881.81;;;21.93;61.80
5522;BME280;2783;48.730;8.006;2022-07-10T06:57:02;100867.47;;;22.05;61.29
5522;BME280;2783;48.730;8.006;2022-07-10T06:59:28;100874.38;;;22.23;60.66
5522;BME280;2783;48.730;8.006;2022-07-10T07:01:53;100877.66;;;22.28;57.94
5522;BME280;2783;48.730;8.006;2022-07-10T07:04:19;100867.50;;;22.17;59.69
5522;BME280;2783;48.730;8.006;2022-07-10T07:06:44;100868.63;;;22.01;59.61
5522;BME280;2783;48.730;8.006;2022-07-10T07:09:09;100878.06;;;22.22;59.37
5522;BME280;2783;48.730;8.006;2022-07-10T07:11:35;100882.97;;;22.56;58.71
5522;BME280;2783;48.730;8.006;2022-07-10T07:14:00;100882.34;;;22.65;60.13
5522;BME280;2783;48.730;8.006;2022-07-10T07:16:25;100880.63;;;22.77;57.79
5522;BME280;2783;48.730;8.006;2022-07-10T07:19:04;100878.50;;;23.07;59.84
5522;BME280;2783;48.730;8.006;2022-07-10T07:21:31;100877.66;;;23.57;57.08
5522;BME280;2783;48.730;8.006;2022-07-10T07:24:15;100880.31;;;23.82;55.12
5522;BME280;2783;48.730;8.006;2022-07-10T07:26:40;100880.97;;;23.73;55.16
5522;BME280;2783;48.730;8.006;2022-07-10T07:29:06;100870.28;;;23.33;54.40
5522;BME280;2783;48.730;8.006;2022-07-10T07:31:31;100890.81;;;23.37;53.66
5522;BME280;2783;48.730;8.006;2022-07-10T07:33:57;100879.81;;;23.14;55.61
5522;BME280;2783;48.730;8.006;2022-07-10T07:36:23;100891.75;;;22.86;56.96
5522;BME280;2783;48.730;8.006;2022-07-10T07:38:48;100882.78;;;22.72;56.59
5522;BME280;2783;48.730;8.006;2022-07-10T07:41:14;100881.72;;;22.74;55.50
5522;BME280;2783;48.730;8.006;2022-07-10T07:43:40;100881.31;;;22.93;56.74
5522;BME280;2783;48.730;8.006;2022-07-10T07:46:06;100882.75;;;23.23;55.24
5522;BME280;2783;48.730;8.006;2022-07-10T07:48:31;100875.69;;;23.46;53.24
5522;BME280;2783;48.730;8.006;2022-07-10T07:50:57;100889.81;;;23.64;53.18
5522;BME280;2783;48.730;8.006;2022-07-10T07:53:22;100883.16;;;24.16;52.73
5522;BME280;2783;48.730;8.006;2022-07-10T07:55:47;100884.13;;;24.15;50.35
5522;BME280;2783;48.730;8.006;2022-07-10T07:58:13;100883.34;;;23.90;51.44
5522;BME280;2783;48.730;8.006;2022-07-10T08:00:38;100880.91;;;23.24;53.05
5522;BME280;2783;48.730;8.006;2022-07-10T08:03:04;100879.47;;;22.93;52.58
5522;BME280;2783;48.730;8.006;2022-07-10T08:05:29;100881.09;;;22.96;51.59
5522;BME280;2783;48.730;8.006;2022-07-10T08:07:57;100879.50;;;23.43;52.32
5522;BME280;2783;48.730;8.006;2022-07-10T08:10:25;100882.19;;;23.69;49.54
5522;BME280;2783;48.730;8.006;2022-07-10T08:12:51;100877.88;;;23.54;51.02
5522;BME280;2783;48.730;8.006;2022-07-10T08:15:19;100879.06;;;23.50;51.16
5522;BME280;2783;48.730;8.006;2022-07-10T08:17:48;100873.19;;;23.43;51.92
5522;BME280;2783;48.730;8.006;2022-07-10T08:20:14;100879.78;;;23.64;52.77
5522;BME280;2783;48.730;8.006;2022-07-10T08:22:41;100877.34;;;23.49;51.18
5522;BME280;2783;48.730;8.006;2022-07-10T08:25:07;100872.00;;;23.34;50.23
5522;BME280;2783;48.730;8.006;2022-07-10T08:27:33;100880.47;;;23.55;50.68
5522;BME280;2783;48.730;8.006;2022-07-10T08:29:59;100890.38;;;23.92;48.78
5522;BME280;2783;48.730;8.006;2022-07-10T08:32:25;100881.38;;;23.79;48.89
5522;BME280;2783;48.730;8.006;2022-07-10T08:34:52;100882.44;;;23.66;49.28
5522;BME280;2783;48.730;8.006;2022-07-10T08:37:17;100889.81;;;23.64;50.25
5522;BME280;2783;48.730;8.006;2022-07-10T08:39:44;100882.56;;;23.88;49.62
5522;BME280;2783;48.730;8.006;2022-07-10T08:42:11;100883.34;;;24.26;49.40
5522;BME280;2783;48.730;8.006;2022-07-10T08:44:36;100886.66;;;24.53;48.32
5522;BME280;2783;48.730;8.006;2022-07-10T08:47:03;100870.47;;;24.75;46.58
5522;BME280;2783;48.730;8.006;2022-07-10T08:49:30;100869.84;;;25.28;46.46
5522;BME280;2783;48.730;8.006;2022-07-10T08:52:05;100863.97;;;25.56;43.33
5522;BME280;2783;48.730;8.006;2022-07-10T08:54:32;100869.09;;;26.15;43.81
5522;BME280;2783;48.730;8.006;2022-07-10T08:57:00;100868.72;;;26.51;43.95
5522;BME280;2783;48.730;8.006;2022-07-10T08:59:27;100861.81;;;26.78;42.17
5522;BME280;2783;48.730;8.006;2022-07-10T09:01:52;100867.72;;;27.04;41.89
5522;BME280;2783;48.730;8.006;2022-07-10T09:04:23;100869.88;;;27.21;41.25
5522;BME280;2783;48.730;8.006;2022-07-10T09:06:50;100866.06;;;27.12;41.49
5522;BME280;2783;48.730;8.006;2022-07-10T09:09:16;100861.75;;;27.31;41.30
5522;BME280;2783;48.730;8.006;2022-07-10T09:11:42;100864.66;;;27.39;40.77
5522;BME280;2783;48.730;8.006;2022-07-10T09:14:14;100866.13;;;27.22;40.29
5522;BME280;2783;48.730;8.006;2022-07-10T09:16:42;100884.50;;;26.79;41.08
5522;BME280;2783;48.730;8.006;2022-07-10T09:19:24;100867.63;;;26.85;40.56
5522;BME280;2783;48.730;8.006;2022-07-10T09:21:54;100866.53;;;26.97;40.72
5522;BME280;2783;48.730;8.006;2022-07-10T09:24:21;100863.75;;;27.08;40.83
5522;BME280;2783;48.730;8.006;2022-07-10T09:29:21;100875.91;;;27.75;38.63
5522;BME280;2783;48.730;8.006;2022-07-10T09:31:53;100867.56;;;28.07;38.85
5522;BME280;2783;48.730;8.006;2022-07-10T09:34:38;100868.09;;;28.01;38.44
5522;BME280;2783;48.730;8.006;2022-07-10T09:39:59;100874.22;;;27.84;38.72
5522;BME280;2783;48.730;8.006;2022-07-10T09:42:35;100871.22;;;27.06;38.23
5522;BME280;2783;48.730;8.006;2022-07-10T09:47:40;100868.28;;;27.39;38.76
5522;BME280;2783;48.730;8.006;2022-07-10T09:50:27;100860.53;;;27.44;37.72
5522;BME280;2783;48.730;8.006;2022-07-10T09:53:00;100861.06;;;28.08;37.12
5522;BME280;2783;48.730;8.006;2022-07-10T09:55:28;100875.13;;;28.72;36.79
5522;BME280;2783;48.730;8.006;2022-07-10T09:58:00;100866.56;;;28.17;37.88
5522;BME280;2783;48.730;8.006;2022-07-10T10:00:34;100868.44;;;28.17;36.76
5522;BME280;2783;48.730;8.006;2022-07-10T10:03:02;100861.78;;;28.10;37.35
5522;BME280;2783;48.730;8.006;2022-07-10T10:10:49;100860.78;;;27.20;38.01
5522;BME280;2783;48.730;8.006;2022-07-10T10:13:17;100862.63;;;26.90;39.07
5522;BME280;2783;48.730;8.006;2022-07-10T10:15:44;100854.19;;;27.44;38.10
5522;BME280;2783;48.730;8.006;2022-07-10T10:18:11;100856.03;;;27.73;37.22
5522;BME280;2783;48.730;8.006;2022-07-10T10:20:38;100842.91;;;26.86;36.89
5522;BME280;2783;48.730;8.006;2022-07-10T10:23:17;100836.91;;;26.92;40.44
5522;BME280;2783;48.730;8.006;2022-07-10T10:25:46;100848.41;;;27.37;38.78
5522;BME280;2783;48.730;8.006;2022-07-10T10:28:13;100840.94;;;27.39;37.64
5522;BME280;2783;48.730;8.006;2022-07-10T10:30:41;100840.09;;;27.48;36.99
5522;BME280;2783;48.730;8.006;2022-07-10T10:35:58;100844.47;;;27.30;38.25
5522;BME280;2783;48.730;8.006;2022-07-10T10:49:17;100846.41;;;28.18;35.48
5522;BME280;2783;48.730;8.006;2022-07-10T10:54:28;100843.53;;;28.48;35.66
5522;BME280;2783;48.730;8.006;2022-07-10T10:57:13;100826.13;;;28.88;34.75
5522;BME280;2783;48.730;8.006;2022-07-10T11:02:34;100830.28;;;29.11;35.20
5522;BME280;2783;48.730;8.006;2022-07-10T11:07:56;100832.84;;;28.07;34.94
5522;BME280;2783;48.730;8.006;2022-07-10T11:10:42;100834.78;;;27.86;36.38
5522;BME280;2783;48.730;8.006;2022-07-10T11:15:36;100825.91;;;27.54;36.86
5522;BME280;2783;48.730;8.006;2022-07-10T11:20:45;100817.31;;;28.94;35.14
5522;BME280;2783;48.730;8.006;2022-07-10T11:28:52;100812.81;;;29.12;33.65
5522;BME280;2783;48.730;8.006;2022-07-10T11:31:18;100814.25;;;29.52;33.49
5522;BME280;2783;48.730;8.006;2022-07-10T11:33:46;100803.50;;;29.96;33.64
5522;BME280;2783;48.730;8.006;2022-07-10T11:36:18;100809.94;;;30.04;32.58
5522;BME280;2783;48.730;8.006;2022-07-10T11:38:45;100809.44;;;29.91;32.31
5522;BME280;2783;48.730;8.006;2022-07-10T11:41:14;100809.44;;;30.36;32.70
5522;BME280;2783;48.730;8.006;2022-07-10T11:43:54;100796.22;;;30.74;31.41
5522;BME280;2783;48.730;8.006;2022-07-10T11:46:22;100794.53;;;30.56;31.50
5522;BME280;2783;48.730;8.006;2022-07-10T11:48:49;100800.41;;;30.78;32.27
5522;BME280;2783;48.730;8.006;2022-07-10T11:51:25;100799.16;;;30.91;31.05
5522;BME280;2783;48.730;8.006;2022-07-10T11:54:07;100800.34;;;31.14;31.13
5522;BME280;2783;48.730;8.006;2022-07-10T11:56:37;100801.53;;;30.76;30.83
5522;BME280;2783;48.730;8.006;2022-07-10T11:59:08;100797.28;;;30.56;32.48
5522;BME280;2783;48.730;8.006;2022-07-10T12:01:40;100799.47;;;31.13;31.21
5522;BME280;2783;48.730;8.006;2022-07-10T12:04:07;100801.28;;;31.05;32.78
5522;BME280;2783;48.730;8.006;2022-07-10T12:06:35;100796.84;;;30.86;31.01
5522;BME280;2783;48.730;8.006;2022-07-10T12:09:05;100792.19;;;29.81;31.91
5522;BME280;2783;48.730;8.006;2022-07-10T12:11:32;100795.59;;;29.65;33.80
5522;BME280;2783;48.730;8.006;2022-07-10T12:14:20;100800.03;;;30.38;32.50
5522;BME280;2783;48.730;8.006;2022-07-10T12:16:49;100782.94;;;30.87;30.81
5522;BME280;2783;48.730;8.006;2022-07-10T12:19:17;100778.84;;;31.17;31.80
5522;BME280;2783;48.730;8.006;2022-07-10T12:21:46;100797.75;;;31.38;29.94
5522;BME280;2783;48.730;8.006;2022-07-10T12:24:13;100792.47;;;30.75;30.53
5522;BME280;2783;48.730;8.006;2022-07-10T12:26:40;100795.06;;;30.59;32.43
5522;BME280;2783;48.730;8.006;2022-07-10T12:29:18;100790.06;;;30.37;32.18
5522;BME280;2783;48.730;8.006;2022-07-10T12:31:46;100784.88;;;30.52;31.25
5522;BME280;2783;48.730;8.006;2022-07-10T12:34:11;100784.03;;;30.95;30.90
5522;BME280;2783;48.730;8.006;2022-07-10T12:36:51;100789.22;;;30.98;30.42
5522;BME280;2783;48.730;8.006;2022-07-10T12:39:24;100791.56;;;31.44;30.65
5522;BME280;2783;48.730;8.006;2022-07-10T12:42:08;100783.06;;;31.55;31.90
5522;BME280;2783;48.730;8.006;2022-07-10T12:44:36;100783.34;;;31.18;29.43
5522;BME280;2783;48.730;8.006;2022-07-10T12:47:16;100785.72;;;31.13;30.26
5522;BME280;2783;48.730;8.006;2022-07-10T12:54:48;100786.19;;;30.65;31.20
5522;BME280;2783;48.730;8.006;2022-07-10T12:57:23;100784.63;;;30.80;30.50
5522;BME280;2783;48.730;8.006;2022-07-10T12:59:49;100783.47;;;31.09;30.64
5522;BME280;2783;48.730;8.006;2022-07-10T13:02:20;100780.91;;;30.89;30.06
5522;BME280;2783;48.730;8.006;2022-07-10T13:04:55;100783.66;;;30.89;29.87
5522;BME280;2783;48.730;8.006;2022-07-10T13:07:34;100783.94;;;30.78;29.97
5522;BME280;2783;48.730;8.006;2022-07-10T13:10:03;100783.63;;;30.46;30.89
5522;BME280;2783;48.730;8.006;2022-07-10T13:12:29;100785.88;;;29.98;31.07
5522;BME280;2783;48.730;8.006;2022-07-10T13:14:55;100783.13;;;29.98;30.69
5522;BME280;2783;48.730;8.006;2022-07-10T13:17:20;100782.50;;;30.04;30.60
5522;BME280;2783;48.730;8.006;2022-07-10T13:19:45;100774.19;;;29.96;32.48
5522;BME280;2783;48.730;8.006;2022-07-10T13:22:11;100764.63;;;29.19;30.60
5522;BME280;2783;48.730;8.006;2022-07-10T13:24:37;100781.03;;;28.73;32.70
5522;BME280;2783;48.730;8.006;2022-07-10T13:27:04;100781.56;;;28.86;33.93
5522;BME280;2783;48.730;8.006;2022-07-10T13:29:30;100781.47;;;29.24;33.87
5522;BME280;2783;48.730;8.006;2022-07-10T13:31:55;100775.69;;;29.27;32.40
5522;BME280;2783;48.730;8.006;2022-07-10T13:34:20;100780.97;;;29.11;33.40
5522;BME280;2783;48.730;8.006;2022-07-10T13:36:46;100774.78;;;29.36;32.60
5522;BME280;2783;48.730;8.006;2022-07-10T13:39:11;100774.50;;;28.83;30.85
5522;BME280;2783;48.730;8.006;2022-07-10T13:41:37;100776.69;;;28.80;32.79
5522;BME280;2783;48.730;8.006;2022-07-10T13:44:02;100776.25;;;29.30;33.61
5522;BME280;2783;48.730;8.006;2022-07-10T13:46:28;100769.03;;;29.66;34.24
5522;BME280;2783;48.730;8.006;2022-07-10T13:48:53;100773.78;;;29.37;32.39
5522;BME280;2783;48.730;8.006;2022-07-10T13:51:18;100769.44;;;29.71;35.45
5522;BME280;2783;48.730;8.006;2022-07-10T13:53:44;100773.34;;;29.59;33.28
5522;BME280;2783;48.730;8.006;2022-07-10T13:56:09;100770.94;;;29.29;31.91
5522;BME280;2783;48.730;8.006;2022-07-10T13:58:35;100769.97;;;29.01;33.13
5522;BME280;2783;48.730;8.006;2022-07-10T14:01:02;100767.50;;;28.52;32.99